Time,TemperatureF,DewpointF,PressureIn,WindDirection,WindDirectionDegrees,WindSpeedMPH,WindSpeedGustMPH,Humidity,HourlyPrecipIn,Conditions,Clouds,dailyrainin,SoftwareType,DateUTC
2013-06-17 00:05:00,65.8,58.7,29.81,South,180,0.0,-999.0,78,-99.99,,,0.00,Acu-Link.com,2013-06-17 04:05:00,
2013-06-17 00:21:00,64.8,58.5,29.80,South,180,0.0,-999.0,80,-99.99,,,0.00,Acu-Link.com,2013-06-17 04:21:00,
2013-06-17 00:36:00,63.5,57.6,29.81,SE,135,0.0,-999.0,81,-99.99,,,0.00,Acu-Link.com,2013-06-17 04:36:00,
2013-06-17 00:51:00,63.0,58.4,29.80,SSW,202,0.0,-999.0,85,-99.99,,,0.00,Acu-Link.com,2013-06-17 04:51:00,
2013-06-17 01:06:00,62.1,57.5,29.80,SSW,202,0.0,-999.0,85,-99.99,,,0.00,Acu-Link.com,2013-06-17 05:06:00,
2013-06-17 01:22:00,61.5,57.9,29.80,WSW,247,0.0,-999.0,88,-99.99,,,0.00,Acu-Link.com,2013-06-17 05:22:00,
2013-06-17 01:37:00,61.7,58.4,29.81,SSW,202,1.7,-999.0,89,-99.99,,,0.00,Acu-Link.com,2013-06-17 05:37:00,
2013-06-17 01:52:00,62.6,59.0,29.80,West,270,1.1,-999.0,88,-99.99,,,0.00,Acu-Link.com,2013-06-17 05:52:00,
2013-06-17 02:07:00,63.3,59.4,29.80,West,270,1.7,-999.0,87,-99.99,,,0.00,Acu-Link.com,2013-06-17 06:07:00,
2013-06-17 02:23:00,64.2,59.6,29.81,West,270,3.2,-999.0,85,-99.99,,,0.00,Acu-Link.com,2013-06-17 06:23:00,
2013-06-17 02:38:00,64.8,59.8,29.81,WSW,247,2.2,-999.0,84,-99.99,,,0.00,Acu-Link.com,2013-06-17 06:38:00,
2013-06-17 02:53:00,64.0,59.1,29.80,South,180,0.0,-999.0,84,-99.99,,,0.00,Acu-Link.com,2013-06-17 06:53:00,
2013-06-17 03:08:00,63.0,58.4,29.80,WSW,247,0.0,-999.0,85,-99.99,,,0.00,Acu-Link.com,2013-06-17 07:08:00,
2013-06-17 03:23:00,61.9,58.0,29.80,ESE,112,0.0,-999.0,87,-99.99,,,0.00,Acu-Link.com,2013-06-17 07:23:00,
2013-06-17 03:39:00,60.8,57.5,29.80,WSW,247,0.0,-999.0,89,-99.99,,,0.00,Acu-Link.com,2013-06-17 07:39:00,
2013-06-17 03:54:00,59.9,57.6,29.81,South,180,0.0,-999.0,92,-99.99,,,0.00,Acu-Link.com,2013-06-17 07:54:00,
2013-06-17 04:09:00,59.2,56.9,29.81,SSW,202,0.0,-999.0,92,-99.99,,,0.00,Acu-Link.com,2013-06-17 08:09:00,
2013-06-17 04:24:00,58.8,56.8,29.80,SSW,202,0.0,-999.0,93,-99.99,,,0.00,Acu-Link.com,2013-06-17 08:24:00,
2013-06-17 04:39:00,58.5,57.1,29.80,SSE,157,0.0,-999.0,95,-99.99,,,0.00,Acu-Link.com,2013-06-17 08:39:00,
2013-06-17 04:55:00,57.7,56.3,29.80,WNW,292,0.0,-999.0,95,-99.99,,,0.00,Acu-Link.com,2013-06-17 08:55:00,
2013-06-17 05:10:00,57.2,56.4,29.82,NNE,22,0.0,-999.0,97,-99.99,,,0.00,Acu-Link.com,2013-06-17 09:10:00,
2013-06-17 05:25:00,57.6,56.8,29.82,South,180,0.0,-999.0,97,-99.99,,,0.00,Acu-Link.com,2013-06-17 09:25:00,
2013-06-17 05:40:00,57.6,56.8,29.82,SSE,157,0.0,-999.0,97,-99.99,,,0.00,Acu-Link.com,2013-06-17 09:40:00,
2013-06-17 05:56:00,57.9,57.1,29.84,WSW,247,0.0,-999.0,97,-99.99,,,0.00,Acu-Link.com,2013-06-17 09:56:00,
2013-06-17 06:11:00,58.6,57.8,29.85,West,270,0.0,-999.0,97,-99.99,,,0.00,Acu-Link.com,2013-06-17 10:11:00,
2013-06-17 06:26:00,59.4,58.3,29.84,SSW,202,0.0,-999.0,96,-99.99,,,0.00,Acu-Link.com,2013-06-17 10:26:00,
2013-06-17 06:41:00,59.4,58.0,29.84,SSW,202,0.0,-999.0,95,-99.99,,,0.00,Acu-Link.com,2013-06-17 10:41:00,
2013-06-17 06:56:00,60.3,59.2,29.83,South,180,0.0,-999.0,96,-99.99,,,0.00,Acu-Link.com,2013-06-17 10:56:00,
2013-06-17 07:12:00,60.6,59.5,29.83,WNW,292,0.0,-999.0,96,-99.99,,,0.00,Acu-Link.com,2013-06-17 11:12:00,
2013-06-17 07:27:00,66.2,62.9,29.83,SW,225,0.0,-999.0,89,-99.99,,,0.00,Acu-Link.com,2013-06-17 11:27:00,
2013-06-17 07:42:00,69.3,64.3,29.82,SSE,157,0.0,-999.0,84,-99.99,,,0.00,Acu-Link.com,2013-06-17 11:42:00,
2013-06-17 07:57:00,70.9,64.4,29.83,West,270,2.2,-999.0,80,-99.99,,,0.00,Acu-Link.com,2013-06-17 11:57:00,
2013-06-17 08:12:00,72.9,64.9,29.83,West,270,0.0,-999.0,76,-99.99,,,0.00,Acu-Link.com,2013-06-17 12:12:00,
2013-06-17 08:28:00,74.8,65.2,29.83,East,90,1.1,-999.0,72,-99.99,,,0.00,Acu-Link.com,2013-06-17 12:28:00,
2013-06-17 08:43:00,77.2,65.8,29.83,SW,225,3.7,-999.0,68,-99.99,,,0.00,Acu-Link.com,2013-06-17 12:43:00,
2013-06-17 08:58:00,78.8,66.0,29.83,SW,225,3.2,-999.0,65,-99.99,,,0.00,Acu-Link.com,2013-06-17 12:58:00,
2013-06-17 09:13:00,75.4,62.8,29.84,NW,315,2.7,-999.0,65,-99.99,,,0.00,Acu-Link.com,2013-06-17 13:13:00,
2013-06-17 09:29:00,77.0,65.2,29.85,SSE,157,2.7,-999.0,67,-99.99,,,0.00,Acu-Link.com,2013-06-17 13:29:00,
2013-06-17 09:44:00,78.1,63.1,29.86,WNW,292,3.7,-999.0,60,-99.99,,,0.00,Acu-Link.com,2013-06-17 13:44:00,
2013-06-17 09:59:00,78.8,62.3,29.86,NW,315,1.1,-999.0,57,-99.99,,,0.00,Acu-Link.com,2013-06-17 13:59:00,
2013-06-17 10:14:00,80.1,60.9,29.86,West,270,3.7,-999.0,52,-99.99,,,0.00,Acu-Link.com,2013-06-17 14:14:00,
2013-06-17 10:29:00,79.9,61.2,29.86,West,270,3.7,-999.0,53,-99.99,,,0.00,Acu-Link.com,2013-06-17 14:29:00,
2013-06-17 10:45:00,81.7,63.4,29.86,WNW,292,3.2,-999.0,54,-99.99,,,0.00,Acu-Link.com,2013-06-17 14:45:00,
2013-06-17 11:00:00,82.2,61.7,29.85,WNW,292,4.2,-999.0,50,-99.99,,,0.00,Acu-Link.com,2013-06-17 15:00:00,
2013-06-17 11:15:00,82.4,62.4,29.85,WNW,292,1.7,-999.0,51,-99.99,,,0.00,Acu-Link.com,2013-06-17 15:15:00,
2013-06-17 11:31:00,83.3,63.3,29.85,West,270,3.7,-999.0,51,-99.99,,,0.00,Acu-Link.com,2013-06-17 15:31:00,
2013-06-17 11:46:00,84.4,63.7,29.85,WNW,292,1.7,-999.0,50,-99.99,,,0.00,Acu-Link.com,2013-06-17 15:46:00,
2013-06-17 12:01:00,82.2,61.1,29.85,ESE,112,2.2,-999.0,49,-99.99,,,0.00,Acu-Link.com,2013-06-17 16:01:00,
2013-06-17 12:16:00,85.1,64.3,29.85,NNE,22,3.7,-999.0,50,-99.99,,,0.00,Acu-Link.com,2013-06-17 16:16:00,
2013-06-17 12:32:00,84.0,62.8,29.85,West,270,3.2,-999.0,49,-99.99,,,0.00,Acu-Link.com,2013-06-17 16:32:00,
2013-06-17 12:47:00,84.7,64.5,29.85,West,270,2.7,-999.0,51,-99.99,,,0.00,Acu-Link.com,2013-06-17 16:47:00,
2013-06-17 13:02:00,86.0,65.2,29.85,ESE,112,1.1,-999.0,50,-99.99,,,0.00,Acu-Link.com,2013-06-17 17:02:00,
2013-06-17 13:18:00,85.1,64.9,29.84,North,0,4.2,-999.0,51,-99.99,,,0.00,Acu-Link.com,2013-06-17 17:18:00,
2013-06-17 13:33:00,87.1,65.6,29.84,SSW,202,1.7,-999.0,49,-99.99,,,0.00,Acu-Link.com,2013-06-17 17:33:00,
2013-06-17 13:48:00,85.6,64.2,29.83,ENE,67,3.7,-999.0,49,-99.99,,,0.00,Acu-Link.com,2013-06-17 17:48:00,
2013-06-17 14:03:00,86.2,64.2,29.83,WNW,292,2.2,-999.0,48,-99.99,,,0.00,Acu-Link.com,2013-06-17 18:03:00,
2013-06-17 14:18:00,86.9,66.6,29.82,WNW,292,2.7,-999.0,51,-99.99,,,0.00,Acu-Link.com,2013-06-17 18:18:00,
2013-06-17 14:34:00,87.6,64.8,29.81,West,270,5.8,-999.0,47,-99.99,,,0.00,Acu-Link.com,2013-06-17 18:34:00,
2013-06-17 14:49:00,87.1,63.8,29.81,South,180,4.2,-999.0,46,-99.99,,,0.00,Acu-Link.com,2013-06-17 18:49:00,
2013-06-17 15:04:00,87.3,66.4,29.81,ENE,67,3.2,-999.0,50,-99.99,,,0.00,Acu-Link.com,2013-06-17 19:04:00,
2013-06-17 15:19:00,84.7,65.6,29.81,SSE,157,5.3,-999.0,53,-99.99,,,0.00,Acu-Link.com,2013-06-17 19:19:00,
2013-06-17 15:34:00,84.9,65.3,29.80,SSE,157,5.8,-999.0,52,-99.99,,,0.00,Acu-Link.com,2013-06-17 19:34:00,
2013-06-17 15:50:00,85.6,65.4,29.81,East,90,3.7,-999.0,51,-99.99,,,0.00,Acu-Link.com,2013-06-17 19:50:00,
2013-06-17 16:05:00,86.7,66.4,29.80,NW,315,3.7,-999.0,51,-99.99,,,0.00,Acu-Link.com,2013-06-17 20:05:00,
2013-06-17 16:20:00,84.4,64.8,29.80,SE,135,8.3,-999.0,52,-99.99,,,0.00,Acu-Link.com,2013-06-17 20:20:00,
2013-06-17 16:35:00,82.8,64.4,29.78,ESE,112,3.7,-999.0,54,-99.99,,,0.00,Acu-Link.com,2013-06-17 20:35:00,
2013-06-17 16:51:00,82.0,64.2,29.76,ESE,112,8.9,-999.0,55,-99.99,,,0.00,Acu-Link.com,2013-06-17 20:51:00,
2013-06-17 17:06:00,72.7,64.3,29.84,North,0,11.4,-999.0,75,-99.99,,,0.05,Acu-Link.com,2013-06-17 21:06:00,
2013-06-17 17:21:00,65.8,64.3,29.83,NNE,22,4.2,-999.0,95,-99.99,,,0.09,Acu-Link.com,2013-06-17 21:21:00,
2013-06-17 17:36:00,69.4,67.9,29.82,NNE,22,3.7,-999.0,95,-99.99,,,0.10,Acu-Link.com,2013-06-17 21:36:00,
2013-06-17 17:52:00,70.7,67.0,29.79,NNE,22,2.7,-999.0,88,-99.99,,,0.10,Acu-Link.com,2013-06-17 21:52:00,
2013-06-17 18:07:00,72.5,66.7,29.78,ESE,112,5.8,-999.0,82,-99.99,,,0.10,Acu-Link.com,2013-06-17 22:07:00,
2013-06-17 18:22:00,74.1,66.4,29.78,South,180,3.2,-999.0,77,-99.99,,,0.10,Acu-Link.com,2013-06-17 22:22:00,
2013-06-17 18:37:00,76.1,68.0,29.79,NE,45,1.1,-999.0,76,-99.99,,,0.10,Acu-Link.com,2013-06-17 22:37:00,
2013-06-17 18:53:00,76.1,68.0,29.79,East,90,4.2,-999.0,76,-99.99,,,0.10,Acu-Link.com,2013-06-17 22:53:00,
2013-06-17 19:08:00,77.0,67.7,29.78,NNE,22,2.7,-999.0,73,-99.99,,,0.10,Acu-Link.com,2013-06-17 23:08:00,
2013-06-17 19:23:00,74.7,66.2,29.79,NNE,22,3.7,-999.0,75,-99.99,,,0.10,Acu-Link.com,2013-06-17 23:23:00,
2013-06-17 19:38:00,71.4,64.9,29.79,ESE,112,5.8,-999.0,80,-99.99,,,0.10,Acu-Link.com,2013-06-17 23:38:00,
2013-06-17 19:54:00,67.5,65.1,29.79,SSW,202,5.3,-999.0,92,-99.99,,,0.10,Acu-Link.com,2013-06-17 23:54:00,
2013-06-17 20:09:00,66.7,65.5,29.89,NNE,22,4.7,-999.0,96,-99.99,,,0.14,Acu-Link.com,2013-06-18 00:09:00,
2013-06-17 20:24:00,60.4,59.8,29.85,NNE,22,4.7,-999.0,98,-99.99,,,0.54,Acu-Link.com,2013-06-18 00:24:00,
2013-06-17 20:40:00,60.4,59.8,29.82,East,90,4.2,-999.0,98,-99.99,,,0.58,Acu-Link.com,2013-06-18 00:40:00,
2013-06-17 20:55:00,60.4,59.8,29.83,ENE,67,0.0,-999.0,98,-99.99,,,0.58,Acu-Link.com,2013-06-18 00:55:00,
2013-06-17 21:10:00,60.3,59.7,29.82,SE,135,3.7,-999.0,98,-99.99,,,0.58,Acu-Link.com,2013-06-18 01:10:00,
2013-06-17 21:25:00,59.9,59.3,29.83,SW,225,0.0,-999.0,98,-99.99,,,0.58,Acu-Link.com,2013-06-18 01:25:00,
2013-06-17 21:40:00,59.5,58.9,29.83,NNE,22,0.0,-999.0,98,-99.99,,,0.58,Acu-Link.com,2013-06-18 01:40:00,
2013-06-17 21:56:00,59.2,58.6,29.83,NNE,22,0.0,-999.0,98,-99.99,,,0.58,Acu-Link.com,2013-06-18 01:56:00,
2013-06-17 22:11:00,59.2,58.6,29.84,NW,315,3.7,-999.0,98,-99.99,,,0.58,Acu-Link.com,2013-06-18 02:11:00,
2013-06-17 22:26:00,59.4,58.8,29.84,North,0,1.1,-999.0,98,-99.99,,,0.58,Acu-Link.com,2013-06-18 02:26:00,
2013-06-17 22:42:00,59.2,58.6,29.85,SW,225,1.1,-999.0,98,-99.99,,,0.58,Acu-Link.com,2013-06-18 02:42:00,
2013-06-17 22:57:00,58.8,58.2,29.85,WNW,292,2.2,-999.0,98,-99.99,,,0.58,Acu-Link.com,2013-06-18 02:57:00,
2013-06-17 23:12:00,58.6,58.0,29.86,NNE,22,2.2,-999.0,98,-99.99,,,0.58,Acu-Link.com,2013-06-18 03:12:00,
2013-06-17 23:27:00,58.5,57.9,29.86,NE,45,2.2,-999.0,98,-99.99,,,0.58,Acu-Link.com,2013-06-18 03:27:00,
2013-06-17 23:42:00,58.3,57.7,29.86,NW,315,2.2,-999.0,98,-99.99,,,0.58,Acu-Link.com,2013-06-18 03:42:00,
2013-06-17 23:58:00,58.1,57.5,29.86,NNW,337,1.7,-999.0,98,-99.99,,,0.58,Acu-Link.com,2013-06-18 03:58:00,